Time;durP1;ratioP1;P1;durP2;ratioP2;P2;SDS_P1;SDS_P2;PMS_P1;PMS_P2;Temp;Humidity;BMP_temperature;BMP_pressure;BME280_temperature;BME280_humidity;BME280_pressure;Samples;Min_cycle;Max_cycle;Signal;HPM_P1;HPM_P2
2023/12/10 00:01:15;;;;;;;12.77;4.63;;;;;;;4.36;98.73;96938.53;5037871;28;20459;-75
2023/12/10 00:03:40;;;;;;;13.90;4.72;;;;;;;4.32;98.58;96946.16;5038268;28;20036;-76
2023/12/10 00:06:06;;;;;;;9.23;4.95;;;;;;;4.37;98.63;96954.09;5037344;28;20086;-76
2023/12/10 00:08:32;;;;;;;8.43;4.22;;;;;;;4.42;98.17;96966.53;5040073;28;20037;-76
2023/12/10 00:10:57;;;;;;;9.77;4.70;;;;;;;4.32;98.18;96977.84;5046351;28;20037;-76
2023/12/10 00:13:22;;;;;;;13.00;4.20;;;;;;;4.40;98.63;96987.94;5046053;28;20124;-76
2023/12/10 00:15:48;;;;;;;8.10;4.55;;;;;;;4.47;98.37;96985.06;5040350;28;20507;-75
2023/12/10 00:18:13;;;;;;;7.82;4.45;;;;;;;4.45;97.92;96982.69;5042130;28;20029;-75
2023/12/10 00:20:39;;;;;;;12.70;5.32;;;;;;;4.39;98.42;96991.63;5047204;28;20029;-75
2023/12/10 00:23:04;;;;;;;12.48;4.50;;;;;;;4.50;97.77;96990.63;5042551;28;20030;-75
2023/12/10 00:25:31;;;;;;;13.05;5.47;;;;;;;4.46;97.43;96994.84;5039884;28;20094;-75
2023/12/10 00:27:58;;;;;;;13.18;4.70;;;;;;;4.45;98.03;97000.38;5046121;28;20466;-75
2023/12/10 00:30:23;;;;;;;10.90;5.03;;;;;;;4.42;98.62;97011.44;5041354;28;20045;-75
2023/12/10 00:32:48;;;;;;;12.30;4.70;;;;;;;4.40;98.85;97010.91;5043916;28;20029;-75
2023/12/10 00:35:14;;;;;;;17.27;5.20;;;;;;;4.43;97.98;97018.34;5040137;28;20090;-76
2023/12/10 00:37:39;;;;;;;11.70;5.45;;;;;;;4.52;97.28;97028.16;5045016;28;20033;-75
2023/12/10 00:40:06;;;;;;;15.13;6.10;;;;;;;4.43;98.19;97027.03;5039880;28;20437;-75
2023/12/10 00:42:32;;;;;;;11.85;4.70;;;;;;;4.59;97.19;97035.09;5044305;28;20026;-76
2023/12/10 00:44:57;;;;;;;6.70;4.30;;;;;;;4.49;96.41;97044.53;5044356;28;20104;-75
2023/12/10 00:47:23;;;;;;;10.40;4.80;;;;;;;4.54;96.78;97047.19;5043623;28;20125;-76
2023/12/10 00:49:48;;;;;;;11.90;4.70;;;;;;;4.57;96.99;97053.81;5049959;28;20033;-75
2023/12/10 00:52:14;;;;;;;13.18;6.57;;;;;;;4.59;96.98;97057.00;5044026;28;20102;-75
2023/12/10 00:54:39;;;;;;;13.35;4.55;;;;;;;4.60;96.84;97065.72;5043690;28;20039;-75
2023/12/10 00:57:05;;;;;;;14.38;6.65;;;;;;;4.64;97.91;97069.44;5044654;28;20037;-75
2023/12/10 00:59:30;;;;;;;8.65;4.50;;;;;;;4.64;97.82;97077.38;5049298;28;20021;-75
2023/12/10 01:01:56;;;;;;;18.98;5.75;;;;;;;4.50;97.95;97075.16;5045447;28;20933;-75
2023/12/10 01:04:22;;;;;;;15.85;5.00;;;;;;;4.54;98.63;97072.81;5043135;28;20065;-75
2023/12/10 01:06:47;;;;;;;22.25;6.47;;;;;;;4.64;97.91;97082.66;5048812;28;20024;-75
2023/12/10 01:09:15;;;;;;;17.48;5.00;;;;;;;4.61;98.27;97086.59;5044983;28;20112;-75
2023/12/10 01:11:41;;;;;;;12.15;4.50;;;;;;;4.61;97.90;97093.75;5046261;28;20040;-75
2023/12/10 01:14:06;;;;;;;10.50;4.28;;;;;;;4.57;98.61;97104.81;5045527;28;20413;-75
2023/12/10 01:16:32;;;;;;;12.48;5.15;;;;;;;4.62;98.11;97111.16;5046289;28;20036;-75
2023/12/10 01:18:57;;;;;;;15.02;4.88;;;;;;;4.57;98.95;97104.81;5040982;28;20056;-75
2023/12/10 01:21:22;;;;;;;13.27;5.90;;;;;;;4.65;97.67;97113.31;5035957;28;20030;-75
2023/12/10 01:23:54;;;;;;;12.27;4.72;;;;;;;4.69;98.08;97115.22;5046682;28;20033;-75
2023/12/10 01:26:19;;;;;;;15.18;5.53;;;;;;;4.71;97.69;97118.38;5047493;28;20025;-76
2023/12/10 01:28:45;;;;;;;8.98;3.88;;;;;;;4.74;97.87;97127.66;5048257;28;20035;-76
2023/12/10 01:31:10;;;;;;;11.45;5.28;;;;;;;4.79;97.59;97148.81;5044915;28;20040;-76
2023/12/10 01:33:36;;;;;;;15.00;5.65;;;;;;;4.76;97.95;97150.13;5043250;28;20033;-76
2023/12/10 01:36:01;;;;;;;13.65;4.75;;;;;;;4.78;97.53;97142.75;5043718;28;20506;-76
2023/12/10 01:38:26;;;;;;;9.60;4.28;;;;;;;4.77;97.42;97161.50;5043350;28;20032;-77
2023/12/10 01:40:52;;;;;;;17.35;5.78;;;;;;;4.79;98.06;97162.03;5048793;28;20037;-77
2023/12/10 01:43:17;;;;;;;13.43;4.60;;;;;;;4.75;98.27;97163.59;5043541;28;20106;-77
2023/12/10 01:45:54;;;;;;;23.23;5.95;;;;;;;4.77;98.63;97169.41;5043421;28;20032;-77
2023/12/10 01:48:23;;;;;;;19.27;5.22;;;;;;;4.75;98.24;97182.09;5047110;28;20041;-78
2023/12/10 01:50:48;;;;;;;17.10;6.22;;;;;;;4.74;97.99;97202.44;5042387;28;20071;-77
2023/12/10 01:53:15;;;;;;;14.80;5.32;;;;;;;4.81;98.21;97204.88;5047625;28;20508;-77
2023/12/10 01:55:42;;;;;;;14.93;4.90;;;;;;;4.76;97.98;97210.91;5048337;28;20402;-78
2023/12/10 01:58:08;;;;;;;19.90;5.28;;;;;;;4.81;98.21;97210.94;5050946;28;20079;-78
2023/12/10 02:00:35;;;;;;;15.55;5.47;;;;;;;4.76;98.23;97207.47;5047888;28;20425;-77
2023/12/10 02:03:02;;;;;;;19.50;5.68;;;;;;;4.74;98.41;97210.34;5043494;28;20037;-77
2023/12/10 02:05:29;;;;;;;12.10;4.05;;;;;;;4.81;98.58;97228.66;5046126;28;20505;-77
2023/12/10 02:07:54;;;;;;;22.55;5.40;;;;;;;4.75;97.87;97227.03;5047587;28;20082;-77
2023/12/10 02:10:19;;;;;;;20.60;5.38;;;;;;;4.80;98.20;97241.09;5051888;28;20100;-78
2023/12/10 02:12:46;;;;;;;22.00;6.35;;;;;;;4.86;97.50;97247.19;5053611;28;20025;-78
2023/12/10 02:15:16;;;;;;;13.18;4.40;;;;;;;4.84;97.95;97244.81;5050270;28;20033;-78
2023/12/10 02:17:41;;;;;;;14.65;5.40;;;;;;;4.80;97.53;97246.38;5052150;28;20035;-78
2023/12/10 02:20:14;;;;;;;20.50;5.63;;;;;;;4.75;98.54;97242.88;5045690;28;20069;-78
2023/12/10 02:23:11;;;;;;;22.48;5.05;;;;;;;4.81;97.95;97257.72;5049689;28;20048;-78
2023/12/10 02:25:38;;;;;;;12.75;4.85;;;;;;;4.81;98.14;97257.72;5050390;28;20012;-78
2023/12/10 02:28:05;;;;;;;25.67;6.68;;;;;;;4.79;98.93;97257.19;5047349;28;20021;-78
2023/12/10 02:30:32;;;;;;;16.23;4.53;;;;;;;4.80;98.35;97264.88;5051204;28;20033;-77
2023/12/10 02:32:57;;;;;;;22.27;5.45;;;;;;;4.73;97.69;97255.53;5051930;28;20060;-77
2023/12/10 02:35:23;;;;;;;16.15;5.65;;;;;;;4.79;97.83;97265.09;5052443;28;20056;-78
2023/12/10 02:37:49;;;;;;;17.67;5.00;;;;;;;4.82;98.43;97277.84;5051081;28;20043;-78
2023/12/10 02:40:16;;;;;;;14.50;4.25;;;;;;;4.73;98.28;97274.03;5045480;28;20032;-77
2023/12/10 02:42:42;;;;;;;17.58;5.40;;;;;;;4.86;97.98;97281.56;5049333;28;20028;-77
2023/12/10 02:45:08;;;;;;;17.83;5.72;;;;;;;4.90;97.78;97282.66;5030931;28;20041;-77
2023/12/10 02:47:35;;;;;;;18.67;4.07;;;;;;;4.88;97.91;97282.09;5050152;28;20032;-78
2023/12/10 02:50:01;;;;;;;22.02;5.47;;;;;;;4.86;97.97;97292.94;5047777;28;20037;-77
2023/12/10 02:52:26;;;;;;;14.20;4.43;;;;;;;4.87;97.40;97288.47;5049198;28;21868;-77
2023/12/10 02:54:52;;;;;;;9.05;3.72;;;;;;;4.81;97.15;97292.09;5045447;28;20060;-77
2023/12/10 02:57:17;;;;;;;14.98;4.70;;;;;;;4.83;97.44;97288.16;5045038;28;20116;-77
2023/12/10 02:59:43;;;;;;;11.95;3.72;;;;;;;4.75;97.66;97295.72;5043210;28;20036;-77
2023/12/10 03:02:08;;;;;;;18.75;4.30;;;;;;;4.85;97.54;97290.56;5047137;28;20025;-76
2023/12/10 03:04:34;;;;;;;22.40;4.90;;;;;;;4.80;97.45;97283.38;5045923;28;20037;-76
2023/12/10 03:06:59;;;;;;;13.90;4.18;;;;;;;4.82;97.29;97299.78;5044299;28;20029;-77
2023/12/10 03:09:24;;;;;;;9.98;3.55;;;;;;;4.84;97.77;97302.97;5043658;28;20090;-77
2023/12/10 03:11:50;;;;;;;12.02;3.30;;;;;;;4.84;97.74;97299.53;5049972;28;20123;-77
2023/12/10 03:14:15;;;;;;;18.33;4.20;;;;;;;4.81;97.28;97290.25;5025849;28;20044;-77
2023/12/10 03:16:41;;;;;;;20.23;4.93;;;;;;;4.76;97.85;97292.06;5043258;28;20033;-76
2023/12/10 03:19:08;;;;;;;19.67;4.50;;;;;;;4.76;97.85;97287.53;5043745;28;20044;-76
2023/12/10 03:21:33;;;;;;;16.60;4.43;;;;;;;4.77;98.06;97305.00;5042869;28;20029;-76
2023/12/10 03:23:58;;;;;;;20.40;4.10;;;;;;;4.66;98.74;97299.84;5049152;28;20396;-76
2023/12/10 03:26:24;;;;;;;20.60;4.47;;;;;;;4.72;98.64;97299.66;5030422;28;20086;-76
2023/12/10 03:28:49;;;;;;;21.80;5.22;;;;;;;4.76;98.37;97299.97;5042124;28;20050;-76
2023/12/10 03:31:14;;;;;;;13.70;4.80;;;;;;;4.75;98.57;97301.00;5041190;28;20097;-76
2023/12/10 03:33:40;;;;;;;19.73;4.55;;;;;;;4.66;98.02;97295.38;5049581;28;20072;-76
2023/12/10 03:36:05;;;;;;;17.73;5.70;;;;;;;4.70;98.07;97312.31;5043536;28;20038;-76
2023/12/10 03:38:31;;;;;;;18.23;4.97;;;;;;;4.75;97.83;97312.38;5042697;28;20485;-76
2023/12/10 03:40:57;;;;;;;27.08;5.03;;;;;;;4.75;97.91;97311.59;5040761;28;20063;-76
2023/12/10 03:43:25;;;;;;;22.35;5.57;;;;;;;4.71;97.43;97321.06;5043859;28;20021;-78
2023/12/10 03:45:51;;;;;;;23.77;5.78;;;;;;;4.71;98.30;97321.88;5045481;28;20040;-78
2023/12/10 03:48:16;;;;;;;19.55;6.07;;;;;;;4.64;98.53;97317.81;5048698;28;20037;-78
2023/12/10 03:50:41;;;;;;;26.50;6.57;;;;;;;4.67;98.56;97314.69;5050554;28;20088;-77
2023/12/10 03:53:07;;;;;;;28.25;6.25;;;;;;;4.67;98.35;97317.31;5043704;28;20412;-77
2023/12/10 03:55:32;;;;;;;25.10;7.93;;;;;;;4.70;99.07;97309.69;5043596;28;20102;-76
2023/12/10 03:57:57;;;;;;;16.85;5.85;;;;;;;4.72;98.41;97320.81;5044219;28;20406;-77
2023/12/10 04:00:23;;;;;;;23.48;6.75;;;;;;;4.74;98.11;97315.28;5043441;28;20083;-77
2023/12/10 04:02:48;;;;;;;22.58;8.15;;;;;;;4.70;98.19;97307.03;5042525;28;20029;-78
2023/12/10 04:05:14;;;;;;;36.15;6.85;;;;;;;4.69;98.65;97317.88;5042133;28;20037;-77
2023/12/10 04:07:39;;;;;;;25.30;6.38;;;;;;;4.72;97.91;97312.88;5043758;28;20041;-77
2023/12/10 04:10:06;;;;;;;24.58;5.70;;;;;;;4.73;98.14;97316.31;5044527;28;20093;-78
2023/12/10 04:12:32;;;;;;;39.08;7.30;;;;;;;4.65;98.78;97322.06;5039980;28;20064;-79
2023/12/10 04:14:57;;;;;;;35.00;8.70;;;;;;;4.72;98.52;97333.25;5045094;28;20032;-78
2023/12/10 04:17:22;;;;;;;28.50;6.35;;;;;;;4.66;98.67;97331.56;5049172;28;20362;-78
2023/12/10 04:19:49;;;;;;;25.48;7.20;;;;;;;4.71;99.10;97336.91;5044557;28;20025;-79
2023/12/10 04:22:14;;;;;;;34.35;6.47;;;;;;;4.70;98.34;97324.72;5031363;28;20498;-79
2023/12/10 04:24:40;;;;;;;30.52;6.65;;;;;;;4.71;97.99;97336.91;5037892;28;20037;-78
2023/12/10 04:27:05;;;;;;;33.55;6.55;;;;;;;4.69;98.17;97334.53;5056832;28;20064;-78
2023/12/10 04:29:30;;;;;;;32.88;8.05;;;;;;;4.71;98.98;97331.63;5050176;28;20040;-78
2023/12/10 04:31:56;;;;;;;17.92;5.18;;;;;;;4.70;98.83;97335.31;5054330;28;20074;-77
2023/12/10 04:34:21;;;;;;;33.35;8.25;;;;;;;4.69;99.06;97336.38;5054395;28;20099;-78
2023/12/10 04:36:47;;;;;;;32.20;7.43;;;;;;;4.79;98.61;97344.38;5055160;28;20040;-77
2023/12/10 04:39:13;;;;;;;33.63;8.00;;;;;;;4.81;97.46;97352.88;5036191;28;20520;-78
2023/12/10 04:41:38;;;;;;;29.52;6.72;;;;;;;4.74;98.14;97341.72;5051395;28;20029;-78
2023/12/10 04:44:03;;;;;;;22.30;7.03;;;;;;;4.79;97.98;97339.91;5045976;28;20037;-77
2023/12/10 04:46:29;;;;;;;35.28;6.55;;;;;;;4.75;97.60;97354.66;5058325;28;20089;-78
2023/12/10 04:48:54;;;;;;;33.85;6.18;;;;;;;4.75;98.39;97348.59;5053687;28;20082;-78
2023/12/10 04:51:21;;;;;;;34.95;7.82;;;;;;;4.78;97.79;97353.38;5053440;28;20044;-78
2023/12/10 04:53:46;;;;;;;21.15;5.63;;;;;;;4.78;98.10;97359.47;5050414;28;20033;-79
2023/12/10 04:56:11;;;;;;;34.15;6.82;;;;;;;4.77;97.98;97362.34;5050409;28;20033;-78
2023/12/10 04:58:37;;;;;;;25.40;5.75;;;;;;;4.83;98.10;97369.28;5053071;28;20481;-78
2023/12/10 05:01:03;;;;;;;26.17;6.47;;;;;;;4.78;98.59;97372.69;5035752;28;20132;-79
2023/12/10 05:08:11;;;;;;;26.42;7.10;;;;;;;4.66;97.92;97348.22;5074866;28;20042;-78
2023/12/10 05:13:32;;;;;;;31.65;7.18;;;;;;;4.83;97.80;97390.41;5076194;28;19923;-78
2023/12/10 05:16:16;;;;;;;35.53;8.65;;;;;;;4.67;98.20;97373.63;5075506;28;20024;-78
2023/12/10 05:18:48;;;;;;;36.92;6.38;;;;;;;4.61;99.18;97365.88;5070048;28;20052;-78
2023/12/10 05:21:16;;;;;;;25.92;6.88;;;;;;;4.55;99.24;97352.59;5075009;28;20024;-78
2023/12/10 05:23:45;;;;;;;30.83;6.28;;;;;;;4.53;99.17;97349.41;5092575;28;20028;-78
2023/12/10 05:26:11;;;;;;;29.55;6.20;;;;;;;4.51;99.21;97343.56;5094388;28;20050;-77
2023/12/10 05:28:39;;;;;;;33.13;6.32;;;;;;;4.72;100.00;97376.28;5095049;28;20075;-77
2023/12/10 05:31:05;;;;;;;24.50;6.78;;;;;;;4.63;99.16;97356.63;5094976;28;20028;-77
2023/12/10 05:33:31;;;;;;;18.77;5.70;;;;;;;4.74;99.64;97376.06;5094713;28;20093;-77
2023/12/10 05:35:58;;;;;;;19.30;6.47;;;;;;;4.68;100.00;97374.38;5073486;28;20024;-77
2023/12/10 05:38:23;;;;;;;31.65;6.50;;;;;;;4.65;100.00;97369.63;5089438;28;20033;-77
2023/12/10 05:40:48;;;;;;;20.48;5.40;;;;;;;4.66;100.00;97376.47;5087901;28;20404;-77
2023/12/10 05:43:14;;;;;;;38.85;6.97;;;;;;;4.65;100.00;97370.44;5092080;28;20870;-77
2023/12/10 05:45:39;;;;;;;29.35;8.02;;;;;;;4.64;99.87;97373.28;5094751;28;20020;-77
2023/12/10 05:48:05;;;;;;;19.77;5.43;;;;;;;4.65;99.59;97380.19;5075745;28;20094;-77
2023/12/10 05:50:30;;;;;;;28.48;5.60;;;;;;;4.59;100.00;97375.91;5095048;28;20054;-77
2023/12/10 05:52:56;;;;;;;25.35;5.43;;;;;;;4.62;100.00;97375.38;5093134;28;20040;-76
2023/12/10 05:55:21;;;;;;;28.25;5.68;;;;;;;4.59;100.00;97387.25;5095598;28;20032;-77
2023/12/10 05:57:46;;;;;;;17.45;5.63;;;;;;;4.60;100.00;97385.41;5076632;28;20158;-79
2023/12/10 06:00:12;;;;;;;27.05;7.03;;;;;;;4.62;100.00;97397.31;5092233;28;20032;-79
2023/12/10 06:02:38;;;;;;;23.20;5.53;;;;;;;4.62;100.00;97401.81;5091563;28;20039;-79
2023/12/10 06:05:03;;;;;;;23.10;4.90;;;;;;;4.63;100.00;97384.91;5092700;28;20384;-79
2023/12/10 06:07:29;;;;;;;18.45;5.68;;;;;;;4.64;100.00;97391.78;5093162;28;20043;-79
2023/12/10 06:09:54;;;;;;;21.77;5.78;;;;;;;4.61;100.00;97401.00;5073609;28;20040;-78
2023/12/10 06:12:20;;;;;;;24.25;5.38;;;;;;;4.64;100.00;97399.72;5097219;28;20040;-78
2023/12/10 06:14:45;;;;;;;14.75;4.97;;;;;;;4.65;100.00;97402.13;5080821;28;20042;-78
2023/12/10 06:17:10;;;;;;;19.10;5.47;;;;;;;4.68;99.96;97403.47;5096532;28;20032;-79
2023/12/10 06:19:36;;;;;;;22.10;4.78;;;;;;;4.69;100.00;97415.66;5093468;28;20492;-78
2023/12/10 06:22:02;;;;;;;23.23;5.30;;;;;;;4.59;100.00;97389.88;5094704;28;20491;-78
2023/12/10 06:24:28;;;;;;;17.55;4.90;;;;;;;4.59;100.00;97415.53;5075866;28;20020;-78
2023/12/10 06:26:53;;;;;;;24.77;6.40;;;;;;;4.61;100.00;97401.00;5090812;28;20028;-78
2023/12/10 06:29:19;;;;;;;21.50;5.75;;;;;;;4.62;100.00;97396.53;5097530;28;20051;-77
2023/12/10 06:31:44;;;;;;;22.13;5.43;;;;;;;4.60;100.00;97417.91;5078119;28;20039;-79
2023/12/10 06:34:09;;;;;;;18.85;4.57;;;;;;;4.67;100.00;97423.00;5071879;28;20036;-78
2023/12/10 06:36:35;;;;;;;20.90;4.40;;;;;;;4.66;100.00;97421.41;5058486;28;20095;-79
2023/12/10 06:39:01;;;;;;;23.85;5.80;;;;;;;4.62;100.00;97426.41;5074991;28;20118;-79
2023/12/10 06:41:26;;;;;;;22.65;5.90;;;;;;;4.61;100.00;97429.28;5093607;28;20521;-79
2023/12/10 07:01:46;;;;;;;25.17;5.35;;;;;;;4.60;100.00;97467.31;4927564;28;20052;-76
2023/12/10 07:04:13;;;;;;;13.60;3.88;;;;;;;4.60;100.00;97475.25;5041808;28;20055;-76
2023/12/10 07:06:38;;;;;;;22.33;5.57;;;;;;;4.57;100.00;97463.31;5062126;28;20032;-76
2023/12/10 07:09:06;;;;;;;15.20;4.68;;;;;;;4.59;100.00;97458.56;5044080;28;20028;-76
2023/12/10 07:11:32;;;;;;;18.77;4.57;;;;;;;4.61;100.00;97468.94;5060047;28;20556;-76
2023/12/10 07:13:57;;;;;;;16.23;4.00;;;;;;;4.61;100.00;97477.63;5063543;28;20111;-76
2023/12/10 07:16:23;;;;;;;17.60;3.97;;;;;;;4.62;100.00;97473.16;5065345;28;20028;-77
2023/12/10 07:18:48;;;;;;;20.00;3.92;;;;;;;4.60;100.00;97491.09;5069502;28;20143;-78
2023/12/10 07:21:14;;;;;;;11.35;3.65;;;;;;;4.59;100.00;97492.94;5053714;28;20033;-77
2023/12/10 07:23:39;;;;;;;17.75;3.65;;;;;;;4.51;100.00;97486.22;5070126;28;20059;-77
2023/12/10 07:26:05;;;;;;;10.43;3.00;;;;;;;4.49;100.00;97492.78;5034725;28;20748;-78
2023/12/10 07:28:30;;;;;;;11.80;2.85;;;;;;;4.49;100.00;97496.25;5052350;28;20043;-78
2023/12/10 07:30:56;;;;;;;11.05;3.15;;;;;;;4.52;100.00;97501.03;5057577;28;20040;-77
2023/12/10 07:33:22;;;;;;;13.32;4.53;;;;;;;4.50;100.00;97504.94;5070008;28;20028;-77
2023/12/10 07:35:47;;;;;;;17.98;4.80;;;;;;;4.57;100.00;97514.31;5071294;28;20032;-78
2023/12/10 07:38:13;;;;;;;13.32;4.10;;;;;;;4.60;100.00;97510.38;5071290;28;20703;-77
2023/12/10 07:40:38;;;;;;;23.20;4.13;;;;;;;4.60;100.00;97509.59;5065295;28;20041;-74
2023/12/10 07:43:04;;;;;;;18.90;4.10;;;;;;;4.61;99.68;97506.69;5044869;28;20028;-74
2023/12/10 07:45:30;;;;;;;11.63;3.60;;;;;;;4.65;99.91;97517.59;5064895;28;20051;-74
2023/12/10 07:47:56;;;;;;;17.40;3.13;;;;;;;4.59;100.00;97524.63;5064402;28;20090;-74
2023/12/10 07:50:21;;;;;;;15.18;3.47;;;;;;;4.57;100.00;97535.44;5066603;28;20572;-73
2023/12/10 07:52:47;;;;;;;18.48;3.03;;;;;;;4.60;100.00;97533.38;5067426;28;20047;-73
2023/12/10 07:55:12;;;;;;;12.07;2.53;;;;;;;4.65;100.00;97531.63;5065228;28;20083;-76
2023/12/10 07:57:37;;;;;;;14.98;4.53;;;;;;;4.66;100.00;97533.19;5059704;28;20039;-76
2023/12/10 08:00:05;;;;;;;12.20;4.43;;;;;;;4.62;99.85;97547.13;5063848;28;20409;-76
2023/12/10 08:02:32;;;;;;;14.30;4.07;;;;;;;4.61;100.00;97537.63;5048558;28;20539;-76
2023/12/10 08:05:00;;;;;;;13.15;3.95;;;;;;;4.55;100.00;97534.91;5063705;28;20032;-75
2023/12/10 08:07:25;;;;;;;16.33;3.13;;;;;;;4.61;100.00;97535.75;5044112;28;20381;-75
2023/12/10 08:09:51;;;;;;;9.80;3.30;;;;;;;4.60;100.00;97546.56;5071173;28;20040;-76
2023/12/10 08:12:17;;;;;;;10.63;2.50;;;;;;;4.60;100.00;97526.25;5060196;28;20024;-76
2023/12/10 08:14:42;;;;;;;9.73;3.15;;;;;;;4.63;100.00;97540.81;5067786;28;20032;-76
2023/12/10 08:17:08;;;;;;;15.18;3.85;;;;;;;4.54;100.00;97543.84;5060599;28;20032;-76
2023/12/10 08:19:33;;;;;;;14.65;3.67;;;;;;;4.56;100.00;97554.97;5064772;28;20059;-76
2023/12/10 08:21:59;;;;;;;13.20;2.95;;;;;;;4.64;100.00;97547.69;5060570;28;20115;-77
2023/12/10 08:24:26;;;;;;;8.27;2.50;;;;;;;4.56;100.00;97552.34;5066427;28;20070;-76
2023/12/10 08:26:52;;;;;;;9.70;2.45;;;;;;;4.55;100.00;97550.75;5049881;28;20380;-75
2023/12/10 08:29:17;;;;;;;9.00;2.10;;;;;;;4.63;100.00;97554.03;5046555;28;20095;-76
2023/12/10 08:31:42;;;;;;;17.13;4.95;;;;;;;4.64;100.00;97548.50;5068447;28;20040;-76
2023/12/10 08:34:08;;;;;;;5.28;2.10;;;;;;;4.66;100.00;97549.06;5064054;28;20033;-76
2023/12/10 08:36:33;;;;;;;17.15;2.92;;;;;;;4.74;100.00;97555.78;5065196;28;20039;-76
2023/12/10 08:38:59;;;;;;;14.10;3.35;;;;;;;4.69;100.00;97553.06;5059514;28;20028;-76
2023/12/10 08:41:24;;;;;;;15.80;3.15;;;;;;;4.70;100.00;97559.94;5068564;28;20474;-76
2023/12/10 08:43:49;;;;;;;15.77;2.88;;;;;;;4.72;100.00;97565.78;5065775;28;20082;-76
2023/12/10 08:46:15;;;;;;;12.63;2.67;;;;;;;4.71;100.00;97564.19;5062745;28;20140;-76
2023/12/10 08:48:42;;;;;;;5.90;3.00;;;;;;;4.68;100.00;97562.81;5067389;28;20512;-76
2023/12/10 08:51:07;;;;;;;9.85;2.85;;;;;;;4.76;100.00;97562.41;5064688;28;20082;-76
2023/12/10 08:53:33;;;;;;;19.52;3.53;;;;;;;4.73;100.00;97573.47;5059979;28;20038;-75
2023/12/10 08:55:58;;;;;;;9.38;2.75;;;;;;;4.76;100.00;97564.25;5066568;28;20044;-75
2023/12/10 08:58:23;;;;;;;6.63;3.00;;;;;;;4.73;100.00;97578.75;5066243;28;20116;-75
2023/12/10 09:00:50;;;;;;;13.13;3.60;;;;;;;4.75;100.00;97578.50;5064652;28;20036;-75
2023/12/10 09:03:15;;;;;;;8.02;2.38;;;;;;;4.69;100.00;97577.66;5066664;28;20497;-75
2023/12/10 09:05:41;;;;;;;16.70;3.20;;;;;;;4.68;100.00;97570.75;5065045;28;20020;-75
2023/12/10 09:08:07;;;;;;;10.35;3.28;;;;;;;4.68;100.00;97585.78;5066141;28;20060;-75
2023/12/10 09:10:33;;;;;;;13.20;3.22;;;;;;;4.70;100.00;97583.72;5071706;28;20120;-75
2023/12/10 09:12:58;;;;;;;14.48;3.88;;;;;;;4.72;100.00;97593.00;5073125;28;20073;-75
2023/12/10 09:15:24;;;;;;;8.93;3.42;;;;;;;4.72;100.00;97586.94;5069054;28;20087;-75
2023/12/10 09:17:49;;;;;;;10.60;3.10;;;;;;;4.74;100.00;97590.91;5065941;28;20024;-76
2023/12/10 09:20:14;;;;;;;8.00;3.00;;;;;;;4.80;100.00;97597.91;5065319;28;20040;-75
2023/12/10 09:22:41;;;;;;;18.35;6.15;;;;;;;4.76;100.00;97594.13;5075301;28;20463;-75
2023/12/10 09:25:07;;;;;;;14.32;3.30;;;;;;;4.76;100.00;97593.34;5065125;28;20064;-75
2023/12/10 09:27:32;;;;;;;16.23;3.40;;;;;;;4.87;100.00;97593.22;5052881;28;20163;-75
2023/12/10 09:29:58;;;;;;;10.32;3.47;;;;;;;4.83;100.00;97599.22;5072824;28;20029;-75
2023/12/10 09:32:44;;;;;;;10.27;2.20;;;;;;;4.77;100.00;97606.31;5064931;28;20111;-75
2023/12/10 09:35:09;;;;;;;14.20;3.38;;;;;;;4.78;100.00;97620.31;5069772;28;20086;-76
2023/12/10 09:37:37;;;;;;;18.05;3.33;;;;;;;4.82;100.00;97629.38;5066860;28;20021;-76
2023/12/10 09:40:03;;;;;;;13.82;2.72;;;;;;;4.83;100.00;97636.25;5069477;28;20059;-76
2023/12/10 09:42:28;;;;;;;7.10;2.60;;;;;;;4.83;100.00;97636.25;5067203;28;20515;-76
2023/12/10 09:44:53;;;;;;;11.15;3.00;;;;;;;4.86;100.00;97635.78;5069300;28;20024;-76
2023/12/10 09:47:20;;;;;;;17.08;3.50;;;;;;;4.93;100.00;97628.47;5068979;28;20074;-75
2023/12/10 09:49:46;;;;;;;8.23;3.28;;;;;;;4.92;100.00;97648.81;5070962;28;20025;-75
2023/12/10 09:52:12;;;;;;;19.45;5.18;;;;;;;4.96;100.00;97654.41;5063420;28;20047;-75
2023/12/10 09:54:40;;;;;;;12.05;3.88;;;;;;;4.97;100.00;97648.09;5061166;28;20028;-75
2023/12/10 09:57:06;;;;;;;15.63;3.35;;;;;;;4.97;100.00;97680.63;5063696;28;20028;-75
2023/12/10 09:59:31;;;;;;;7.97;2.90;;;;;;;4.99;100.00;97667.16;5055829;28;20047;-75
2023/12/10 10:01:57;;;;;;;11.77;3.47;;;;;;;4.96;100.00;97668.44;5057007;28;20055;-76
2023/12/10 10:04:23;;;;;;;11.35;3.22;;;;;;;4.93;100.00;97668.94;5059197;28;20369;-75
2023/12/10 10:06:48;;;;;;;4.53;2.13;;;;;;;4.96;99.52;97683.50;5059840;28;20044;-75
2023/12/10 10:09:14;;;;;;;10.00;3.22;;;;;;;4.98;99.89;97678.81;5058564;28;20033;-75
2023/12/10 10:11:39;;;;;;;18.77;3.88;;;;;;;4.96;100.00;97675.56;5061241;28;20036;-75
2023/12/10 10:14:04;;;;;;;9.07;3.63;;;;;;;4.98;100.00;97674.28;5059107;28;20041;-75
2023/12/10 10:16:33;;;;;;;9.85;2.83;;;;;;;5.02;99.72;97685.19;5057294;28;20988;-76
2023/12/10 10:18:59;;;;;;;9.18;2.85;;;;;;;5.00;99.32;97677.50;5060976;28;20048;-76
2023/12/10 10:21:25;;;;;;;16.48;3.70;;;;;;;5.08;99.07;97692.16;5064686;28;20060;-74
2023/12/10 10:23:51;;;;;;;11.43;3.53;;;;;;;5.03;98.79;97687.59;5067807;28;20128;-75
2023/12/10 10:26:17;;;;;;;10.43;5.05;;;;;;;5.08;99.08;97686.88;5059085;28;20473;-76
2023/12/10 10:28:45;;;;;;;14.38;3.88;;;;;;;5.09;98.97;97685.81;5064163;28;20048;-76
2023/12/10 10:31:11;;;;;;;9.45;3.45;;;;;;;5.16;98.79;97691.75;5057191;28;20378;-76
2023/12/10 10:33:36;;;;;;;21.40;3.85;;;;;;;5.14;98.31;97692.00;5037485;28;20162;-76
2023/12/10 10:36:02;;;;;;;14.45;3.88;;;;;;;5.10;98.61;97696.16;5055491;28;20024;-75
2023/12/10 10:38:29;;;;;;;10.98;3.30;;;;;;;5.09;99.17;97696.41;5058947;28;20412;-75
2023/12/10 10:40:57;;;;;;;20.30;4.25;;;;;;;5.08;99.67;97695.63;5057471;28;20032;-75
2023/12/10 10:43:23;;;;;;;12.68;3.20;;;;;;;5.07;99.37;97701.94;5058842;28;20028;-75
2023/12/10 10:45:48;;;;;;;12.70;3.20;;;;;;;5.11;99.64;97708.34;5069814;28;20035;-75
2023/12/10 10:48:14;;;;;;;12.18;3.67;;;;;;;5.11;98.87;97707.56;5090101;28;20028;-75
2023/12/10 10:50:41;;;;;;;8.55;3.45;;;;;;;5.17;98.98;97710.03;5072292;28;20043;-75
2023/12/10 10:53:07;;;;;;;16.20;4.25;;;;;;;5.23;98.58;97716.19;5086158;28;20446;-75
2023/12/10 10:55:33;;;;;;;11.40;3.75;;;;;;;5.31;97.87;97708.66;5072388;28;20165;-75
2023/12/10 10:57:58;;;;;;;18.27;3.78;;;;;;;5.24;98.16;97723.09;5062725;28;20032;-76
2023/12/10 11:00:27;;;;;;;15.07;4.38;;;;;;;5.30;98.74;97714.19;5058562;28;20395;-75
2023/12/10 11:02:54;;;;;;;14.57;3.03;;;;;;;5.32;97.95;97727.97;5043222;28;20036;-76
2023/12/10 11:05:33;;;;;;;10.95;3.63;;;;;;;5.27;98.58;97715.47;5060578;28;20039;-75
2023/12/10 11:07:59;;;;;;;13.00;3.15;;;;;;;5.32;98.50;97725.31;5057333;28;20033;-76
2023/12/10 11:10:25;;;;;;;12.18;3.17;;;;;;;5.29;98.69;97731.09;5040989;28;20039;-75
2023/12/10 11:12:51;;;;;;;9.18;3.00;;;;;;;5.32;98.11;97726.13;5040029;28;20032;-75
2023/12/10 11:15:16;;;;;;;13.70;2.80;;;;;;;5.32;98.37;97735.91;5054641;28;20031;-75
2023/12/10 11:17:54;;;;;;;6.53;2.90;;;;;;;5.34;98.71;97739.13;5065880;28;21595;-75
2023/12/10 11:20:38;;;;;;;13.15;3.65;;;;;;;5.30;98.30;97741.44;5062871;28;20029;-75
2023/12/10 11:23:08;;;;;;;14.57;3.55;;;;;;;5.35;98.66;97747.84;5065023;28;20029;-75
2023/12/10 11:25:35;;;;;;;8.13;2.78;;;;;;;5.38;96.78;97742.06;5058234;28;20054;-75
2023/12/10 11:28:15;;;;;;;7.88;3.13;;;;;;;5.33;98.10;97738.31;5062441;28;20484;-76
2023/12/10 11:30:42;;;;;;;8.73;2.42;;;;;;;5.37;97.67;97751.88;5060092;28;20512;-76
2023/12/10 11:33:09;;;;;;;8.00;2.95;;;;;;;5.38;97.79;97748.16;5055862;28;20060;-76
2023/12/10 11:35:35;;;;;;;7.70;2.13;;;;;;;5.37;97.58;97748.41;5054532;28;20514;-77
2023/12/10 11:38:01;;;;;;;4.80;2.47;;;;;;;5.32;98.29;97751.78;5055804;28;20036;-77
2023/12/10 11:40:26;;;;;;;12.90;3.20;;;;;;;5.37;98.04;97745.78;5051333;28;20033;-77
2023/12/10 11:42:51;;;;;;;3.92;2.00;;;;;;;5.29;98.13;97749.59;5060080;28;21536;-75
2023/12/10 11:45:17;;;;;;;7.47;3.08;;;;;;;5.32;97.79;97759.72;5061760;28;20035;-76
2023/12/10 11:47:44;;;;;;;9.20;3.30;;;;;;;5.28;98.79;97766.53;5065741;28;20389;-75
2023/12/10 11:50:11;;;;;;;9.63;4.55;;;;;;;5.25;98.48;97764.38;5061063;28;20434;-75
2023/12/10 11:52:37;;;;;;;7.57;2.80;;;;;;;5.30;99.08;97761.81;5045838;28;20064;-75